sensor_id;sensor_type;location;lat;lon;timestamp;temperature;humidity
17215;DHT22;8723;51.502;6.918;2023-09-12T00:00:23;21.10;1.00
17215;DHT22;8723;51.502;6.918;2023-09-12T00:02:50;21.10;1.00
17215;DHT22;8723;51.502;6.918;2023-09-12T00:05:17;21.10;1.00
17215;DHT22;8723;51.502;6.918;2023-09-12T00:07:44;21.10;1.00
17215;DHT22;8723;51.502;6.918;2023-09-12T00:10:10;21.00;1.00
17215;DHT22;8723;51.502;6.918;2023-09-12T00:12:38;21.00;1.00
17215;DHT22;8723;51.502;6.918;2023-09-12T00:15:06;20.90;1.00
17215;DHT22;8723;51.502;6.918;2023-09-12T00:17:33;20.90;1.00
17215;DHT22;8723;51.502;6.918;2023-09-12T00:20:00;20.80;1.00
17215;DHT22;8723;51.502;6.918;2023-09-12T00:22:27;20.80;1.00
17215;DHT22;8723;51.502;6.918;2023-09-12T00:24:53;20.80;1.00
17215;DHT22;8723;51.502;6.918;2023-09-12T00:27:20;20.70;15.80
17215;DHT22;8723;51.502;6.918;2023-09-12T00:29:48;20.80;38.60
17215;DHT22;8723;51.502;6.918;2023-09-12T00:32:15;20.80;69.40
17215;DHT22;8723;51.502;6.918;2023-09-12T00:34:43;20.90;99.90
17215;DHT22;8723;51.502;6.918;2023-09-12T00:37:09;21.00;99.90
17215;DHT22;8723;51.502;6.918;2023-09-12T00:39:37;21.00;80.30
17215;DHT22;8723;51.502;6.918;2023-09-12T00:42:06;21.10;59.40
17215;DHT22;8723;51.502;6.918;2023-09-12T00:44:33;21.10;91.80
17215;DHT22;8723;51.502;6.918;2023-09-12T00:47:02;21.10;99.90
17215;DHT22;8723;51.502;6.918;2023-09-12T00:49:29;21.10;99.90
17215;DHT22;8723;51.502;6.918;2023-09-12T00:51:58;20.90;1.00
17215;DHT22;8723;51.502;6.918;2023-09-12T00:54:24;20.80;99.90
17215;DHT22;8723;51.502;6.918;2023-09-12T00:56:52;20.60;1.00
17215;DHT22;8723;51.502;6.918;2023-09-12T00:59:19;20.60;99.90
17215;DHT22;8723;51.502;6.918;2023-09-12T01:01:46;20.50;99.90
17215;DHT22;8723;51.502;6.918;2023-09-12T01:04:15;20.40;99.90
17215;DHT22;8723;51.502;6.918;2023-09-12T01:06:42;20.40;99.90
17215;DHT22;8723;51.502;6.918;2023-09-12T01:09:09;20.40;99.90
17215;DHT22;8723;51.502;6.918;2023-09-12T01:11:36;20.40;99.90
17215;DHT22;8723;51.502;6.918;2023-09-12T01:14:03;20.30;99.90
17215;DHT22;8723;51.502;6.918;2023-09-12T01:16:30;20.30;99.90
17215;DHT22;8723;51.502;6.918;2023-09-12T01:18:57;20.30;99.90
17215;DHT22;8723;51.502;6.918;2023-09-12T01:21:39;20.20;99.90
17215;DHT22;8723;51.502;6.918;2023-09-12T01:24:28;20.20;99.90
17215;DHT22;8723;51.502;6.918;2023-09-12T01:27:13;20.20;99.90
17215;DHT22;8723;51.502;6.918;2023-09-12T01:29:43;20.20;99.90
17215;DHT22;8723;51.502;6.918;2023-09-12T01:32:10;20.20;99.90
17215;DHT22;8723;51.502;6.918;2023-09-12T01:34:37;20.20;99.90
17215;DHT22;8723;51.502;6.918;2023-09-12T01:37:04;20.10;99.90
17215;DHT22;8723;51.502;6.918;2023-09-12T01:39:31;20.20;99.90
17215;DHT22;8723;51.502;6.918;2023-09-12T01:42:00;20.20;99.90
17215;DHT22;8723;51.502;6.918;2023-09-12T01:44:31;20.20;99.90
17215;DHT22;8723;51.502;6.918;2023-09-12T01:47:03;20.20;99.90
17215;DHT22;8723;51.502;6.918;2023-09-12T01:49:34;20.10;99.90
17215;DHT22;8723;51.502;6.918;2023-09-12T01:52:05;20.10;99.90
17215;DHT22;8723;51.502;6.918;2023-09-12T01:54:35;20.10;99.90
17215;DHT22;8723;51.502;6.918;2023-09-12T01:57:06;20.10;99.90
17215;DHT22;8723;51.502;6.918;2023-09-12T01:59:38;20.00;99.90
17215;DHT22;8723;51.502;6.918;2023-09-12T02:02:08;20.10;99.90
17215;DHT22;8723;51.502;6.918;2023-09-12T02:04:37;20.00;99.90
17215;DHT22;8723;51.502;6.918;2023-09-12T02:07:06;20.10;99.90
17215;DHT22;8723;51.502;6.918;2023-09-12T02:09:35;20.20;99.90
17215;DHT22;8723;51.502;6.918;2023-09-12T02:12:02;20.10;99.90
17215;DHT22;8723;51.502;6.918;2023-09-12T02:14:30;20.10;99.90
17215;DHT22;8723;51.502;6.918;2023-09-12T02:17:01;20.10;99.90
17215;DHT22;8723;51.502;6.918;2023-09-12T02:19:31;20.10;99.90
17215;DHT22;8723;51.502;6.918;2023-09-12T02:22:01;20.10;99.90
17215;DHT22;8723;51.502;6.918;2023-09-12T02:24:29;20.10;99.90
17215;DHT22;8723;51.502;6.918;2023-09-12T02:26:57;20.10;99.90
17215;DHT22;8723;51.502;6.918;2023-09-12T02:29:27;20.10;99.90
17215;DHT22;8723;51.502;6.918;2023-09-12T02:31:56;20.10;99.90
17215;DHT22;8723;51.502;6.918;2023-09-12T02:34:26;20.10;99.90
17215;DHT22;8723;51.502;6.918;2023-09-12T02:36:53;20.20;99.90
17215;DHT22;8723;51.502;6.918;2023-09-12T02:39:20;20.20;99.90
17215;DHT22;8723;51.502;6.918;2023-09-12T02:41:47;20.20;99.90
17215;DHT22;8723;51.502;6.918;2023-09-12T02:44:14;20.20;99.90
17215;DHT22;8723;51.502;6.918;2023-09-12T02:46:41;20.20;99.90
17215;DHT22;8723;51.502;6.918;2023-09-12T02:49:08;20.20;99.90
17215;DHT22;8723;51.502;6.918;2023-09-12T02:51:38;20.20;99.90
17215;DHT22;8723;51.502;6.918;2023-09-12T02:54:05;20.20;99.90
17215;DHT22;8723;51.502;6.918;2023-09-12T02:56:32;20.20;99.90
17215;DHT22;8723;51.502;6.918;2023-09-12T02:58:58;20.30;99.90
17215;DHT22;8723;51.502;6.918;2023-09-12T03:01:25;20.30;99.90
17215;DHT22;8723;51.502;6.918;2023-09-12T03:03:53;20.30;99.90
17215;DHT22;8723;51.502;6.918;2023-09-12T03:06:20;20.30;99.90
17215;DHT22;8723;51.502;6.918;2023-09-12T03:08:48;20.30;99.90
17215;DHT22;8723;51.502;6.918;2023-09-12T03:11:15;20.20;99.90
17215;DHT22;8723;51.502;6.918;2023-09-12T03:13:42;20.20;99.90
17215;DHT22;8723;51.502;6.918;2023-09-12T03:16:10;20.10;99.90
17215;DHT22;8723;51.502;6.918;2023-09-12T03:18:37;20.10;99.90
17215;DHT22;8723;51.502;6.918;2023-09-12T03:21:04;20.10;99.90
17215;DHT22;8723;51.502;6.918;2023-09-12T03:23:31;20.10;99.90
17215;DHT22;8723;51.502;6.918;2023-09-12T03:26:02;20.10;99.90
17215;DHT22;8723;51.502;6.918;2023-09-12T03:28:28;20.10;99.90
17215;DHT22;8723;51.502;6.918;2023-09-12T03:31:03;20.10;99.90
17215;DHT22;8723;51.502;6.918;2023-09-12T03:33:30;20.10;99.90
17215;DHT22;8723;51.502;6.918;2023-09-12T03:35:57;20.10;99.90
17215;DHT22;8723;51.502;6.918;2023-09-12T03:38:24;20.10;99.90
17215;DHT22;8723;51.502;6.918;2023-09-12T03:40:51;20.10;99.90
17215;DHT22;8723;51.502;6.918;2023-09-12T03:43:19;20.10;99.90
17215;DHT22;8723;51.502;6.918;2023-09-12T03:45:46;20.10;99.90
17215;DHT22;8723;51.502;6.918;2023-09-12T03:48:12;20.00;99.90
17215;DHT22;8723;51.502;6.918;2023-09-12T03:50:39;20.00;99.90
17215;DHT22;8723;51.502;6.918;2023-09-12T03:53:06;19.90;99.90
17215;DHT22;8723;51.502;6.918;2023-09-12T03:55:33;19.90;99.90
17215;DHT22;8723;51.502;6.918;2023-09-12T03:58:00;19.90;99.90
17215;DHT22;8723;51.502;6.918;2023-09-12T04:00:28;19.80;99.90
17215;DHT22;8723;51.502;6.918;2023-09-12T04:02:54;19.80;99.90
17215;DHT22;8723;51.502;6.918;2023-09-12T04:05:22;19.80;99.90
17215;DHT22;8723;51.502;6.918;2023-09-12T04:07:49;19.70;99.90
17215;DHT22;8723;51.502;6.918;2023-09-12T04:10:15;19.70;99.90
17215;DHT22;8723;51.502;6.918;2023-09-12T04:12:43;19.70;99.90
17215;DHT22;8723;51.502;6.918;2023-09-12T04:15:10;19.70;99.90
17215;DHT22;8723;51.502;6.918;2023-09-12T04:17:38;19.70;99.90
17215;DHT22;8723;51.502;6.918;2023-09-12T04:20:06;19.70;99.90
17215;DHT22;8723;51.502;6.918;2023-09-12T04:22:33;19.60;99.90
17215;DHT22;8723;51.502;6.918;2023-09-12T04:25:00;19.60;99.90
17215;DHT22;8723;51.502;6.918;2023-09-12T04:27:27;19.60;99.90
17215;DHT22;8723;51.502;6.918;2023-09-12T20:49:36;20.70;99.90
17215;DHT22;8723;51.502;6.918;2023-09-12T20:52:03;20.70;99.90
17215;DHT22;8723;51.502;6.918;2023-09-12T20:54:30;20.70;99.90
17215;DHT22;8723;51.502;6.918;2023-09-12T20:56:57;20.60;99.90
17215;DHT22;8723;51.502;6.918;2023-09-12T20:59:24;20.50;99.90
17215;DHT22;8723;51.502;6.918;2023-09-12T21:01:51;20.60;99.90
17215;DHT22;8723;51.502;6.918;2023-09-12T21:04:19;20.50;99.90
17215;DHT22;8723;51.502;6.918;2023-09-12T21:06:46;20.50;99.90
17215;DHT22;8723;51.502;6.918;2023-09-12T21:09:13;20.50;99.90
17215;DHT22;8723;51.502;6.918;2023-09-12T21:11:41;20.50;99.90
17215;DHT22;8723;51.502;6.918;2023-09-12T21:14:07;20.50;99.90
17215;DHT22;8723;51.502;6.918;2023-09-12T21:16:34;20.50;99.90
17215;DHT22;8723;51.502;6.918;2023-09-12T21:19:01;20.60;99.90
17215;DHT22;8723;51.502;6.918;2023-09-12T21:21:30;20.60;99.90
17215;DHT22;8723;51.502;6.918;2023-09-12T21:23:56;20.60;99.90
17215;DHT22;8723;51.502;6.918;2023-09-12T21:26:23;20.60;99.90
17215;DHT22;8723;51.502;6.918;2023-09-12T21:28:50;20.60;99.90
17215;DHT22;8723;51.502;6.918;2023-09-12T21:31:17;20.70;99.90
17215;DHT22;8723;51.502;6.918;2023-09-12T21:33:44;20.60;99.90
17215;DHT22;8723;51.502;6.918;2023-09-12T21:36:11;20.60;99.90
17215;DHT22;8723;51.502;6.918;2023-09-12T21:38:39;20.60;99.90
17215;DHT22;8723;51.502;6.918;2023-09-12T21:41:06;20.60;99.90
17215;DHT22;8723;51.502;6.918;2023-09-12T21:43:33;20.60;99.90
17215;DHT22;8723;51.502;6.918;2023-09-12T21:45:59;20.60;99.90
17215;DHT22;8723;51.502;6.918;2023-09-12T21:48:27;20.60;99.90
17215;DHT22;8723;51.502;6.918;2023-09-12T21:50:53;20.60;99.90
17215;DHT22;8723;51.502;6.918;2023-09-12T21:53:20;20.60;99.90
17215;DHT22;8723;51.502;6.918;2023-09-12T21:55:48;20.60;99.90
17215;DHT22;8723;51.502;6.918;2023-09-12T21:58:15;20.60;99.90
17215;DHT22;8723;51.502;6.918;2023-09-12T22:00:42;20.60;99.90
17215;DHT22;8723;51.502;6.918;2023-09-12T22:03:09;20.60;99.90
17215;DHT22;8723;51.502;6.918;2023-09-12T22:05:58;20.50;99.90
17215;DHT22;8723;51.502;6.918;2023-09-12T22:08:24;20.50;99.90
17215;DHT22;8723;51.502;6.918;2023-09-12T22:10:52;20.40;99.90
17215;DHT22;8723;51.502;6.918;2023-09-12T22:13:19;20.40;99.90
17215;DHT22;8723;51.502;6.918;2023-09-12T22:15:46;20.50;99.90
17215;DHT22;8723;51.502;6.918;2023-09-12T22:18:13;20.40;99.90
17215;DHT22;8723;51.502;6.918;2023-09-12T22:20:40;20.40;99.90
17215;DHT22;8723;51.502;6.918;2023-09-12T22:23:06;20.40;99.90
17215;DHT22;8723;51.502;6.918;2023-09-12T22:25:33;20.40;99.90
17215;DHT22;8723;51.502;6.918;2023-09-12T22:28:01;20.40;99.90
17215;DHT22;8723;51.502;6.918;2023-09-12T22:30:28;20.40;99.90
17215;DHT22;8723;51.502;6.918;2023-09-12T22:32:55;20.40;99.90
17215;DHT22;8723;51.502;6.918;2023-09-12T22:35:22;20.30;99.90
17215;DHT22;8723;51.502;6.918;2023-09-12T22:37:49;20.20;99.90
17215;DHT22;8723;51.502;6.918;2023-09-12T22:40:15;20.20;99.90
17215;DHT22;8723;51.502;6.918;2023-09-12T22:42:42;20.10;99.90
17215;DHT22;8723;51.502;6.918;2023-09-12T22:45:10;20.10;99.90
17215;DHT22;8723;51.502;6.918;2023-09-12T22:47:37;20.10;99.90
17215;DHT22;8723;51.502;6.918;2023-09-12T22:50:06;20.00;99.90
17215;DHT22;8723;51.502;6.918;2023-09-12T22:52:33;20.00;99.90
17215;DHT22;8723;51.502;6.918;2023-09-12T22:55:00;20.00;99.90
17215;DHT22;8723;51.502;6.918;2023-09-12T22:57:29;20.00;99.90
17215;DHT22;8723;51.502;6.918;2023-09-12T22:59:56;19.90;99.90
17215;DHT22;8723;51.502;6.918;2023-09-12T23:02:26;19.90;99.90
17215;DHT22;8723;51.502;6.918;2023-09-12T23:04:56;20.00;99.90
17215;DHT22;8723;51.502;6.918;2023-09-12T23:07:25;20.00;99.90
17215;DHT22;8723;51.502;6.918;2023-09-12T23:09:53;19.90;99.90
17215;DHT22;8723;51.502;6.918;2023-09-12T23:12:20;20.00;99.90
17215;DHT22;8723;51.502;6.918;2023-09-12T23:14:47;19.90;99.90
17215;DHT22;8723;51.502;6.918;2023-09-12T23:17:19;19.90;99.90
17215;DHT22;8723;51.502;6.918;2023-09-12T23:19:47;19.90;99.90
17215;DHT22;8723;51.502;6.918;2023-09-12T23:22:14;19.80;99.90
17215;DHT22;8723;51.502;6.918;2023-09-12T23:24:40;19.80;99.90
17215;DHT22;8723;51.502;6.918;2023-09-12T23:27:07;19.80;99.90
17215;DHT22;8723;51.502;6.918;2023-09-12T23:29:34;19.80;99.90
17215;DHT22;8723;51.502;6.918;2023-09-12T23:32:01;19.80;99.90
17215;DHT22;8723;51.502;6.918;2023-09-12T23:34:28;19.80;99.90
17215;DHT22;8723;51.502;6.918;2023-09-12T23:36:56;19.80;99.90
17215;DHT22;8723;51.502;6.918;2023-09-12T23:39:23;19.80;99.90
17215;DHT22;8723;51.502;6.918;2023-09-12T23:41:51;19.80;99.90
17215;DHT22;8723;51.502;6.918;2023-09-12T23:44:18;19.90;99.90
17215;DHT22;8723;51.502;6.918;2023-09-12T23:46:45;19.90;99.90
17215;DHT22;8723;51.502;6.918;2023-09-12T23:49:12;19.90;99.90
17215;DHT22;8723;51.502;6.918;2023-09-12T23:51:38;19.80;99.90
17215;DHT22;8723;51.502;6.918;2023-09-12T23:54:08;19.90;99.90
17215;DHT22;8723;51.502;6.918;2023-09-12T23:56:36;19.90;99.90
17215;DHT22;8723;51.502;6.918;2023-09-12T23:59:05;19.80;99.90
